Time;durP1;ratioP1;P1;durP2;ratioP2;P2;SDS_P1;SDS_P2;PMS_P1;PMS_P2;Temp;Humidity;BMP_temperature;BMP_pressure;BME280_temperature;BME280_humidity;BME280_pressure;Samples;Min_cycle;Max_cycle;Signal;HPM_P1;HPM_P2
2023/12/23 00:00:47;;;;;;;1.27;0.20;;;;;;;;;;10290144;28;20224;-76
2023/12/23 00:05:48;;;;;;;0.75;0.13;;;;;;;;;;10285972;28;20254;-76
2023/12/23 00:10:49;;;;;;;3.58;0.35;;;;;;;;;;10282560;28;20231;-75
2023/12/23 00:15:50;;;;;;;0.52;0.20;;;;;;;;;;10284988;28;20825;-76
2023/12/23 00:20:51;;;;;;;0.15;0.10;;;;;;;;;;10292236;28;20215;-75
2023/12/23 00:25:52;;;;;;;5.35;0.65;;;;;;;;;;10288172;28;20746;-75
2023/12/23 00:30:53;;;;;;;4.25;0.35;;;;;;;;;;10274172;28;20220;-76
2023/12/23 00:35:54;;;;;;;1.27;0.10;;;;;;;;;;10271821;28;20217;-75
2023/12/23 00:40:55;;;;;;;0.90;0.10;;;;;;;;;;10286721;28;20585;-76
2023/12/23 00:45:56;;;;;;;0.00;0.00;;;;;;;;;;10276127;28;20706;-74
2023/12/23 00:50:57;;;;;;;0.13;0.13;;;;;;;;;;10273919;28;20590;-76
2023/12/23 00:55:59;;;;;;;0.30;0.10;;;;;;;;;;10267030;28;20221;-75
2023/12/23 01:01:01;;;;;;;0.00;0.00;;;;;;;;;;10298563;28;20221;-76
2023/12/23 01:06:02;;;;;;;0.80;0.13;;;;;;;;;;10295801;28;20742;-77
2023/12/23 01:11:03;;;;;;;4.82;0.30;;;;;;;;;;10283433;28;20375;-77
2023/12/23 01:16:04;;;;;;;4.25;0.38;;;;;;;;;;10290122;28;20297;-77
2023/12/23 01:21:05;;;;;;;3.60;0.30;;;;;;;;;;10296029;28;20213;-75
2023/12/23 01:26:06;;;;;;;4.18;0.40;;;;;;;;;;10294010;28;20316;-76
2023/12/23 01:31:07;;;;;;;2.30;0.55;;;;;;;;;;10290845;28;20213;-75
2023/12/23 01:36:08;;;;;;;3.65;0.50;;;;;;;;;;10288163;28;20205;-75
2023/12/23 01:41:09;;;;;;;3.28;0.30;;;;;;;;;;10290230;28;20220;-76
2023/12/23 01:46:10;;;;;;;5.82;0.82;;;;;;;;;;10287659;28;20257;-75
2023/12/23 01:51:12;;;;;;;2.95;0.60;;;;;;;;;;10290288;28;20219;-76
2023/12/23 01:56:14;;;;;;;16.17;0.60;;;;;;;;;;10295489;28;20819;-75
2023/12/23 02:01:16;;;;;;;0.17;0.17;;;;;;;;;;10286705;28;20209;-76
2023/12/23 02:06:17;;;;;;;4.88;0.43;;;;;;;;;;10286120;28;20213;-76
2023/12/23 02:11:31;;;;;;;3.53;0.55;;;;;;;;;;10283955;28;20213;-75
2023/12/23 02:16:32;;;;;;;2.00;0.50;;;;;;;;;;10269325;28;20213;-75
2023/12/23 02:21:33;;;;;;;6.07;0.35;;;;;;;;;;10270848;28;20206;-74
2023/12/23 02:26:34;;;;;;;5.32;0.35;;;;;;;;;;10272767;28;20232;-76
2023/12/23 02:31:36;;;;;;;2.58;0.50;;;;;;;;;;10286385;28;20213;-76
2023/12/23 02:36:38;;;;;;;2.58;0.40;;;;;;;;;;10275348;28;20737;-74
2023/12/23 02:41:39;;;;;;;9.95;0.60;;;;;;;;;;10286557;28;20298;-76
2023/12/23 02:46:41;;;;;;;5.95;0.40;;;;;;;;;;10279311;28;20225;-74
2023/12/23 02:51:42;;;;;;;0.45;0.28;;;;;;;;;;10284089;28;20231;-76
2023/12/23 02:56:43;;;;;;;2.47;0.30;;;;;;;;;;10285671;28;20220;-77
2023/12/23 03:01:44;;;;;;;1.42;0.30;;;;;;;;;;10284889;28;20625;-77
2023/12/23 03:06:45;;;;;;;5.93;0.57;;;;;;;;;;10283285;28;20266;-77
2023/12/23 03:11:47;;;;;;;1.30;0.40;;;;;;;;;;10290286;28;20217;-73
2023/12/23 03:16:48;;;;;;;0.93;0.30;;;;;;;;;;10259171;28;20217;-74
2023/12/23 03:21:49;;;;;;;1.92;0.60;;;;;;;;;;10285888;28;20206;-75
2023/12/23 03:26:50;;;;;;;8.40;0.50;;;;;;;;;;10281530;28;20892;-75
2023/12/23 03:31:51;;;;;;;7.90;0.65;;;;;;;;;;10288973;28;20213;-78
2023/12/23 03:36:52;;;;;;;8.85;0.73;;;;;;;;;;10284123;28;20217;-73
2023/12/23 03:41:53;;;;;;;0.40;0.32;;;;;;;;;;10266134;28;20220;-75
2023/12/23 03:46:56;;;;;;;1.45;0.30;;;;;;;;;;10276033;28;20233;-74
2023/12/23 03:51:57;;;;;;;2.03;0.40;;;;;;;;;;10287008;28;20263;-75
2023/12/23 03:56:58;;;;;;;7.03;0.50;;;;;;;;;;10279195;28;20233;-74
2023/12/23 04:01:59;;;;;;;3.65;0.45;;;;;;;;;;10282248;28;20216;-74
2023/12/23 04:07:00;;;;;;;0.65;0.32;;;;;;;;;;10286721;28;20221;-75
2023/12/23 04:12:01;;;;;;;5.30;0.45;;;;;;;;;;10281495;28;20220;-74
2023/12/23 04:17:03;;;;;;;2.38;0.60;;;;;;;;;;10268578;28;20327;-75
2023/12/23 04:22:04;;;;;;;4.88;0.65;;;;;;;;;;10289248;28;20574;-74
2023/12/23 04:27:05;;;;;;;0.38;0.15;;;;;;;;;;10283459;28;20703;-76
2023/12/23 04:32:06;;;;;;;14.30;0.55;;;;;;;;;;10286951;28;20224;-74
2023/12/23 04:37:08;;;;;;;3.33;0.35;;;;;;;;;;10296555;28;20302;-73
2023/12/23 04:42:09;;;;;;;4.68;0.80;;;;;;;;;;10291138;28;20217;-75
2023/12/23 04:47:10;;;;;;;3.60;0.75;;;;;;;;;;10284624;28;20612;-75
2023/12/23 04:52:11;;;;;;;1.90;0.20;;;;;;;;;;10294348;28;20209;-75
2023/12/23 04:57:12;;;;;;;1.65;0.55;;;;;;;;;;10276548;28;20224;-75
2023/12/23 05:02:13;;;;;;;0.90;0.68;;;;;;;;;;10281013;28;20672;-75
2023/12/23 05:07:15;;;;;;;4.35;0.20;;;;;;;;;;10286118;28;20244;-75
2023/12/23 05:12:16;;;;;;;3.67;0.30;;;;;;;;;;10283496;28;21006;-75
2023/12/23 05:17:17;;;;;;;1.17;0.20;;;;;;;;;;10287178;28;20209;-73
2023/12/23 05:22:18;;;;;;;4.55;0.65;;;;;;;;;;10288824;28;20232;-74
2023/12/23 05:27:19;;;;;;;1.45;0.30;;;;;;;;;;10286735;28;20729;-75
2023/12/23 05:32:20;;;;;;;2.65;0.40;;;;;;;;;;10297756;28;20220;-75
2023/12/23 05:37:21;;;;;;;0.93;0.22;;;;;;;;;;10294048;28;20205;-75
2023/12/23 05:42:24;;;;;;;2.65;0.60;;;;;;;;;;10288066;28;20208;-74
2023/12/23 05:47:25;;;;;;;2.95;0.20;;;;;;;;;;10289236;28;20224;-75
2023/12/23 05:52:26;;;;;;;2.53;0.40;;;;;;;;;;10297178;28;20683;-74
2023/12/23 05:57:27;;;;;;;2.92;0.43;;;;;;;;;;10290909;28;20213;-75
2023/12/23 06:02:28;;;;;;;1.05;0.30;;;;;;;;;;10293068;28;20288;-76
2023/12/23 06:07:29;;;;;;;0.93;0.65;;;;;;;;;;10290577;28;20209;-75
2023/12/23 06:12:30;;;;;;;1.35;0.55;;;;;;;;;;10291414;28;20208;-73
2023/12/23 06:17:31;;;;;;;4.25;0.20;;;;;;;;;;10284236;28;20267;-76
2023/12/23 06:22:32;;;;;;;3.40;0.55;;;;;;;;;;10285071;28;20217;-75
2023/12/23 06:27:33;;;;;;;0.98;0.10;;;;;;;;;;10278833;28;20216;-76
2023/12/23 06:32:34;;;;;;;2.22;0.25;;;;;;;;;;10284355;28;20220;-77
2023/12/23 06:37:35;;;;;;;1.48;0.10;;;;;;;;;;10285892;28;20251;-77
2023/12/23 06:42:36;;;;;;;2.92;0.28;;;;;;;;;;10292178;28;20235;-78
2023/12/23 06:47:37;;;;;;;0.40;0.25;;;;;;;;;;10288781;28;20386;-78
2023/12/23 06:52:39;;;;;;;1.27;0.13;;;;;;;;;;10285665;28;20209;-77
2023/12/23 06:57:40;;;;;;;0.17;0.17;;;;;;;;;;10260926;28;20730;-75
2023/12/23 07:02:41;;;;;;;3.17;0.20;;;;;;;;;;10290424;28;20217;-76
2023/12/23 07:07:43;;;;;;;0.93;0.20;;;;;;;;;;10278271;28;20646;-77
2023/12/23 07:12:44;;;;;;;1.55;0.20;;;;;;;;;;10273069;28;20300;-76
2023/12/23 07:18:11;;;;;;;1.40;0.28;;;;;;;;;;10282474;28;20753;-76
2023/12/23 07:24:27;;;;;;;0.35;0.30;;;;;;;;;;10352914;28;20227;-76
2023/12/23 07:30:44;;;;;;;0.10;0.10;;;;;;;;;;10359733;28;20207;-77
2023/12/23 07:37:02;;;;;;;0.10;0.10;;;;;;;;;;10371108;28;20242;-76
2023/12/23 07:56:17;;;;;;;1.58;0.20;;;;;;;;;;10340576;28;20802;-78
2023/12/23 08:01:18;;;;;;;1.73;0.10;;;;;;;;;;10290244;28;20231;-76
2023/12/23 08:06:19;;;;;;;0.38;0.10;;;;;;;;;;10314455;28;20399;-76
2023/12/23 08:11:22;;;;;;;0.40;0.20;;;;;;;;;;10315504;28;20235;-75
2023/12/23 08:16:23;;;;;;;0.20;0.20;;;;;;;;;;10342791;28;20228;-76
2023/12/23 08:21:24;;;;;;;0.47;0.30;;;;;;;;;;10323367;28;20216;-79
2023/12/23 08:26:25;;;;;;;0.20;0.20;;;;;;;;;;10327624;28;20219;-76
2023/12/23 08:31:26;;;;;;;0.60;0.43;;;;;;;;;;10323797;28;20729;-76
2023/12/23 08:36:27;;;;;;;0.20;0.20;;;;;;;;;;10349440;28;20239;-76
2023/12/23 08:41:28;;;;;;;0.75;0.20;;;;;;;;;;10332467;28;20306;-78
2023/12/23 08:46:30;;;;;;;0.15;0.15;;;;;;;;;;10350356;28;20605;-78
2023/12/23 08:51:33;;;;;;;0.65;0.47;;;;;;;;;;10354487;28;20807;-79
2023/12/23 08:56:34;;;;;;;0.10;0.10;;;;;;;;;;10341986;28;20219;-78
2023/12/23 09:01:35;;;;;;;1.75;0.22;;;;;;;;;;10345114;28;20227;-79
2023/12/23 09:06:36;;;;;;;0.25;0.25;;;;;;;;;;10359729;28;20793;-79
2023/12/23 09:11:43;;;;;;;2.35;0.40;;;;;;;;;;10361744;28;20219;-80
2023/12/23 09:16:44;;;;;;;0.20;0.20;;;;;;;;;;10391182;28;21342;-78
2023/12/23 09:21:45;;;;;;;1.15;0.25;;;;;;;;;;10390916;28;20725;-78
2023/12/23 09:26:46;;;;;;;1.30;0.30;;;;;;;;;;10372112;28;20211;-77
2023/12/23 09:31:47;;;;;;;0.20;0.20;;;;;;;;;;10374494;28;20227;-80
2023/12/23 09:36:48;;;;;;;0.25;0.25;;;;;;;;;;10377584;28;20226;-78
2023/12/23 09:41:49;;;;;;;0.50;0.43;;;;;;;;;;10430123;28;20807;-76
2023/12/23 09:46:50;;;;;;;0.63;0.63;;;;;;;;;;10425299;28;20874;-78
2023/12/23 09:51:52;;;;;;;0.28;0.28;;;;;;;;;;10406515;28;20449;-77
2023/12/23 09:56:54;;;;;;;0.98;0.10;;;;;;;;;;10407903;28;20753;-77
2023/12/23 10:01:55;;;;;;;0.20;0.20;;;;;;;;;;10426712;28;20329;-78
2023/12/23 10:06:56;;;;;;;0.10;0.10;;;;;;;;;;10413138;28;20422;-76
2023/12/23 10:11:57;;;;;;;1.67;0.10;;;;;;;;;;10416751;28;20246;-78
2023/12/23 10:16:58;;;;;;;0.10;0.10;;;;;;;;;;10413421;28;20214;-78
2023/12/23 10:22:00;;;;;;;0.10;0.10;;;;;;;;;;10394026;28;20301;-77
2023/12/23 10:27:01;;;;;;;0.20;0.20;;;;;;;;;;10406940;28;20886;-78
2023/12/23 10:32:04;;;;;;;0.70;0.70;;;;;;;;;;10410786;28;20209;-79
2023/12/23 10:37:05;;;;;;;0.25;0.20;;;;;;;;;;10389901;28;20257;-76
2023/12/23 10:42:09;;;;;;;0.20;0.20;;;;;;;;;;10392410;28;20684;-77
2023/12/23 10:47:11;;;;;;;0.20;0.20;;;;;;;;;;10388519;28;20720;-77
2023/12/23 10:52:13;;;;;;;0.68;0.30;;;;;;;;;;10404202;28;20241;-77
2023/12/23 10:57:15;;;;;;;0.32;0.32;;;;;;;;;;10405732;28;21113;-78
2023/12/23 11:02:19;;;;;;;0.47;0.47;;;;;;;;;;10428100;28;20219;-76
2023/12/23 11:07:22;;;;;;;0.40;0.40;;;;;;;;;;10406736;28;20575;-76
2023/12/23 11:12:23;;;;;;;0.43;0.28;;;;;;;;;;10420729;28;20222;-78
2023/12/23 11:17:25;;;;;;;0.25;0.25;;;;;;;;;;10388977;28;20223;-79
2023/12/23 11:22:27;;;;;;;0.20;0.20;;;;;;;;;;10411219;28;20680;-78
2023/12/23 11:27:31;;;;;;;0.20;0.20;;;;;;;;;;10426996;28;20518;-75
2023/12/23 11:32:39;;;;;;;0.20;0.20;;;;;;;;;;10405037;28;20763;-76
2023/12/23 11:37:52;;;;;;;0.30;0.30;;;;;;;;;;10403918;28;20214;-76
2023/12/23 11:42:54;;;;;;;0.30;0.30;;;;;;;;;;10408856;28;20214;-78
2023/12/23 11:47:55;;;;;;;0.30;0.30;;;;;;;;;;10382317;28;20211;-76
2023/12/23 11:52:56;;;;;;;0.30;0.30;;;;;;;;;;10406448;28;20245;-75
2023/12/23 11:57:58;;;;;;;0.38;0.38;;;;;;;;;;10396123;28;20219;-77
2023/12/23 12:02:59;;;;;;;0.70;0.40;;;;;;;;;;10382078;28;20233;-76
2023/12/23 12:08:00;;;;;;;0.30;0.30;;;;;;;;;;10417854;28;20589;-76
2023/12/23 12:13:01;;;;;;;0.60;0.60;;;;;;;;;;10405943;28;20241;-77
2023/12/23 12:18:02;;;;;;;0.30;0.30;;;;;;;;;;10402813;28;20215;-75
2023/12/23 12:23:03;;;;;;;0.40;0.40;;;;;;;;;;10393727;28;20262;-75
2023/12/23 12:28:05;;;;;;;0.60;0.60;;;;;;;;;;10395278;28;20234;-76
2023/12/23 12:33:06;;;;;;;0.40;0.40;;;;;;;;;;10417543;28;20222;-75
2023/12/23 12:38:08;;;;;;;3.17;0.57;;;;;;;;;;10382778;28;20265;-76
2023/12/23 12:43:09;;;;;;;0.60;0.60;;;;;;;;;;10374474;28;20238;-74
2023/12/23 12:48:11;;;;;;;0.50;0.50;;;;;;;;;;10397085;28;20225;-76
2023/12/23 12:53:15;;;;;;;0.50;0.50;;;;;;;;;;10397522;28;20302;-77
2023/12/23 12:58:16;;;;;;;0.52;0.52;;;;;;;;;;10422363;28;20227;-75
2023/12/23 13:03:17;;;;;;;0.70;0.70;;;;;;;;;;10403067;28;20230;-77
2023/12/23 13:08:18;;;;;;;0.55;0.55;;;;;;;;;;10402453;28;20218;-76
2023/12/23 13:13:19;;;;;;;0.77;0.77;;;;;;;;;;10418905;28;20755;-76
2023/12/23 13:18:20;;;;;;;0.80;0.80;;;;;;;;;;10409659;28;21028;-76
2023/12/23 13:23:21;;;;;;;0.50;0.50;;;;;;;;;;10392569;28;20214;-77
2023/12/23 13:28:22;;;;;;;0.60;0.60;;;;;;;;;;10401528;28;20214;-77
2023/12/23 13:33:23;;;;;;;1.13;0.52;;;;;;;;;;10405601;28;20719;-75
2023/12/23 13:38:25;;;;;;;0.70;0.70;;;;;;;;;;10395790;28;20218;-75
2023/12/23 13:43:26;;;;;;;0.60;0.60;;;;;;;;;;10396801;28;20214;-75
2023/12/23 13:48:27;;;;;;;0.55;0.55;;;;;;;;;;10411542;28;20228;-76
2023/12/23 13:53:28;;;;;;;0.80;0.80;;;;;;;;;;10386574;28;20230;-75
2023/12/23 13:58:29;;;;;;;0.95;0.95;;;;;;;;;;10392266;28;20287;-75
2023/12/23 14:03:30;;;;;;;0.70;0.70;;;;;;;;;;10399117;28;20234;-77
2023/12/23 14:08:32;;;;;;;0.85;0.85;;;;;;;;;;10401300;28;20218;-77
2023/12/23 14:13:33;;;;;;;1.20;1.10;;;;;;;;;;10419881;28;20233;-79
2023/12/23 14:18:34;;;;;;;2.78;1.58;;;;;;;;;;10421599;28;20218;-78
2023/12/23 14:23:35;;;;;;;0.70;0.70;;;;;;;;;;10387709;28;20786;-77
2023/12/23 14:28:36;;;;;;;0.80;0.80;;;;;;;;;;10403702;28;20224;-77
2023/12/23 14:33:37;;;;;;;1.45;1.38;;;;;;;;;;10382441;28;20215;-75
2023/12/23 14:38:38;;;;;;;0.90;0.90;;;;;;;;;;10421742;28;20936;-76
2023/12/23 14:43:39;;;;;;;2.05;0.60;;;;;;;;;;10413006;28;20223;-75
2023/12/23 14:48:41;;;;;;;0.50;0.50;;;;;;;;;;10420967;28;20591;-78
2023/12/23 14:53:42;;;;;;;0.47;0.47;;;;;;;;;;10393640;28;20222;-77
2023/12/23 14:58:44;;;;;;;0.95;0.77;;;;;;;;;;10425027;28;20230;-78
2023/12/23 15:03:47;;;;;;;0.80;0.80;;;;;;;;;;10388971;28;20207;-77
2023/12/23 15:08:48;;;;;;;0.88;0.88;;;;;;;;;;10401675;28;20262;-75
2023/12/23 15:13:49;;;;;;;3.45;0.70;;;;;;;;;;10408927;28;20210;-76
2023/12/23 15:18:50;;;;;;;1.02;1.02;;;;;;;;;;10398403;28;20707;-77
2023/12/23 15:23:51;;;;;;;0.90;0.82;;;;;;;;;;10406305;28;20642;-75
2023/12/23 15:28:52;;;;;;;1.20;1.20;;;;;;;;;;10392279;28;21650;-78
2023/12/23 15:33:53;;;;;;;0.77;0.77;;;;;;;;;;10422590;28;20215;-76
2023/12/23 15:38:54;;;;;;;0.75;0.75;;;;;;;;;;10399321;28;20875;-77
2023/12/23 15:43:56;;;;;;;1.08;1.08;;;;;;;;;;10406896;28;20265;-77
2023/12/23 15:48:57;;;;;;;0.95;0.95;;;;;;;;;;10418528;28;20273;-77
2023/12/23 15:53:58;;;;;;;1.02;1.02;;;;;;;;;;10425027;28;20218;-75
2023/12/23 15:58:59;;;;;;;1.05;1.05;;;;;;;;;;10424791;28;21718;-78
2023/12/23 16:04:00;;;;;;;1.88;1.77;;;;;;;;;;10389931;28;20211;-76
2023/12/23 16:09:01;;;;;;;2.53;2.42;;;;;;;;;;10408080;28;20770;-77
2023/12/23 16:14:02;;;;;;;1.35;1.25;;;;;;;;;;10430103;28;20214;-76
2023/12/23 16:19:03;;;;;;;1.13;1.13;;;;;;;;;;10422995;28;20222;-80
2023/12/23 16:24:04;;;;;;;2.10;2.00;;;;;;;;;;10405473;28;20202;-76
2023/12/23 16:29:05;;;;;;;2.33;2.22;;;;;;;;;;10417503;28;20298;-75
2023/12/23 16:34:06;;;;;;;2.13;2.03;;;;;;;;;;10405327;28;20206;-76
2023/12/23 16:39:07;;;;;;;2.17;2.08;;;;;;;;;;10403082;28;20298;-77
2023/12/23 16:44:08;;;;;;;2.60;2.42;;;;;;;;;;10412461;28;20724;-78
2023/12/23 16:49:09;;;;;;;2.53;2.42;;;;;;;;;;10403386;28;20265;-77
2023/12/23 16:54:10;;;;;;;7.35;5.28;;;;;;;;;;10424028;28;20242;-77
2023/12/23 16:59:11;;;;;;;4.03;3.72;;;;;;;;;;10427411;28;20226;-78
2023/12/23 17:04:13;;;;;;;4.00;3.70;;;;;;;;;;10404463;28;20219;-77
2023/12/23 17:09:14;;;;;;;3.15;2.95;;;;;;;;;;10415503;28;20217;-79
2023/12/23 17:14:15;;;;;;;2.28;2.08;;;;;;;;;;10410437;28;20728;-77
2023/12/23 17:19:16;;;;;;;2.67;2.47;;;;;;;;;;10403494;28;20257;-75
2023/12/23 17:24:17;;;;;;;3.95;3.65;;;;;;;;;;10422394;28;20225;-77
2023/12/23 17:29:18;;;;;;;2.63;2.53;;;;;;;;;;10394687;28;20230;-78
2023/12/23 17:34:19;;;;;;;3.33;3.10;;;;;;;;;;10402187;28;20242;-76
2023/12/23 17:39:21;;;;;;;2.50;2.40;;;;;;;;;;10402140;28;20991;-77
2023/12/23 17:44:22;;;;;;;3.55;2.00;;;;;;;;;;10387097;28;20920;-77
2023/12/23 17:49:23;;;;;;;1.80;1.70;;;;;;;;;;10407521;28;20222;-77
2023/12/23 17:54:25;;;;;;;2.10;1.90;;;;;;;;;;10400826;28;20240;-76
2023/12/23 17:59:27;;;;;;;1.52;1.52;;;;;;;;;;10380898;28;20223;-77
2023/12/23 18:04:29;;;;;;;1.30;1.30;;;;;;;;;;10403399;28;20421;-79
2023/12/23 18:09:31;;;;;;;2.25;2.15;;;;;;;;;;10402775;28;20241;-77
2023/12/23 18:14:32;;;;;;;2.47;2.38;;;;;;;;;;10425825;28;20297;-77
2023/12/23 18:19:33;;;;;;;2.58;2.42;;;;;;;;;;10409016;28;20858;-78
2023/12/23 18:24:34;;;;;;;1.30;1.30;;;;;;;;;;10399130;28;20598;-77
2023/12/23 18:29:35;;;;;;;1.08;1.00;;;;;;;;;;10408385;28;20217;-78
2023/12/23 18:34:36;;;;;;;1.75;1.20;;;;;;;;;;10424505;28;20222;-77
2023/12/23 18:39:37;;;;;;;1.13;1.00;;;;;;;;;;10421958;28;20586;-77
2023/12/23 18:44:39;;;;;;;1.15;1.08;;;;;;;;;;10405475;28;20218;-75
2023/12/23 18:49:40;;;;;;;0.88;0.88;;;;;;;;;;10421636;28;20207;-76
2023/12/23 18:54:41;;;;;;;0.80;0.80;;;;;;;;;;10383787;28;20221;-76
2023/12/23 18:59:42;;;;;;;1.15;1.15;;;;;;;;;;10405284;28;20233;-76
2023/12/23 19:04:44;;;;;;;0.73;0.73;;;;;;;;;;10419215;28;20226;-76
2023/12/23 19:09:45;;;;;;;1.33;1.33;;;;;;;;;;10387861;28;20245;-77
2023/12/23 19:14:46;;;;;;;1.02;1.02;;;;;;;;;;10420062;28;20222;-76
2023/12/23 19:19:47;;;;;;;1.25;1.25;;;;;;;;;;10405697;28;20211;-77
2023/12/23 19:24:49;;;;;;;1.05;0.80;;;;;;;;;;10415166;28;20214;-77
2023/12/23 19:29:50;;;;;;;0.88;0.88;;;;;;;;;;10421871;28;20252;-79
2023/12/23 19:34:51;;;;;;;2.00;1.90;;;;;;;;;;10387982;28;20211;-78
2023/12/23 19:39:52;;;;;;;2.15;1.98;;;;;;;;;;10399458;28;20206;-77
2023/12/23 19:44:53;;;;;;;1.80;1.70;;;;;;;;;;10419208;28;20218;-78
2023/12/23 19:49:54;;;;;;;1.23;1.23;;;;;;;;;;10423039;28;20226;-76
2023/12/23 19:54:55;;;;;;;0.95;0.95;;;;;;;;;;10402351;28;20397;-77
2023/12/23 19:59:56;;;;;;;1.20;1.20;;;;;;;;;;10389047;28;20219;-78
2023/12/23 20:04:57;;;;;;;1.08;1.08;;;;;;;;;;10398255;28;20206;-76
2023/12/23 20:09:58;;;;;;;1.45;1.45;;;;;;;;;;10392725;28;20214;-78
2023/12/23 20:14:59;;;;;;;1.75;1.65;;;;;;;;;;10429762;28;20612;-79
2023/12/23 20:20:00;;;;;;;1.80;1.70;;;;;;;;;;10415487;28;20214;-78
2023/12/23 20:25:01;;;;;;;1.55;1.50;;;;;;;;;;10405365;28;20203;-74
2023/12/23 20:30:02;;;;;;;2.15;2.15;;;;;;;;;;10394308;28;20268;-75
2023/12/23 20:35:03;;;;;;;3.15;2.58;;;;;;;;;;10411405;28;20285;-76
2023/12/23 20:40:04;;;;;;;8.30;5.60;;;;;;;;;;10410207;28;20685;-77
2023/12/23 20:45:05;;;;;;;3.60;3.30;;;;;;;;;;10427941;28;20211;-75
2023/12/23 20:50:06;;;;;;;1.88;1.88;;;;;;;;;;10431547;28;20754;-74
2023/12/23 20:55:08;;;;;;;2.80;2.65;;;;;;;;;;10424665;28;20243;-76
2023/12/23 21:00:09;;;;;;;11.70;7.72;;;;;;;;;;10364918;28;20214;-75
2023/12/23 21:05:10;;;;;;;17.33;10.25;;;;;;;;;;10377253;28;20685;-75
2023/12/23 21:10:14;;;;;;;12.55;7.05;;;;;;;;;;10363156;28;20210;-75
2023/12/23 21:15:15;;;;;;;12.30;8.45;;;;;;;;;;10370554;28;20215;-77
2023/12/23 21:20:16;;;;;;;9.40;6.68;;;;;;;;;;10391036;28;20799;-75
2023/12/23 21:25:17;;;;;;;2.88;2.72;;;;;;;;;;10374184;28;20256;-76
2023/12/23 21:30:18;;;;;;;1.38;1.38;;;;;;;;;;10369434;28;20215;-75
2023/12/23 21:35:19;;;;;;;1.55;1.42;;;;;;;;;;10386279;28;20717;-76
2023/12/23 21:40:20;;;;;;;2.28;2.00;;;;;;;;;;10366254;28;20222;-75
2023/12/23 21:45:21;;;;;;;5.22;3.80;;;;;;;;;;10382736;28;20667;-74
2023/12/23 21:50:22;;;;;;;3.17;2.70;;;;;;;;;;10367340;28;20860;-77
2023/12/23 21:55:25;;;;;;;2.25;2.15;;;;;;;;;;10364663;28;20227;-75
2023/12/23 22:00:26;;;;;;;1.33;1.17;;;;;;;;;;10403103;28;20200;-78
2023/12/23 22:05:27;;;;;;;1.27;1.25;;;;;;;;;;10424935;28;20210;-76
2023/12/23 22:10:28;;;;;;;1.60;1.58;;;;;;;;;;10426779;28;20207;-75
2023/12/23 22:15:29;;;;;;;1.88;1.77;;;;;;;;;;10417467;28;20255;-75
2023/12/23 22:20:31;;;;;;;1.90;1.80;;;;;;;;;;10428920;28;20247;-76
2023/12/23 22:25:32;;;;;;;2.15;2.05;;;;;;;;;;10379545;28;20215;-77
2023/12/23 22:30:33;;;;;;;2.63;2.05;;;;;;;;;;10416292;28;20723;-78
2023/12/23 22:35:34;;;;;;;2.75;2.53;;;;;;;;;;10411748;28;22225;-77
2023/12/23 22:40:35;;;;;;;2.28;2.15;;;;;;;;;;10426261;28;20211;-76
2023/12/23 22:45:36;;;;;;;2.80;2.65;;;;;;;;;;10411843;28;20214;-78
2023/12/23 22:50:37;;;;;;;2.30;2.20;;;;;;;;;;10412279;28;20229;-77
2023/12/23 22:55:38;;;;;;;2.13;1.92;;;;;;;;;;10398371;28;20245;-75
2023/12/23 23:00:39;;;;;;;1.90;1.52;;;;;;;;;;10368891;28;20290;-78
2023/12/23 23:05:40;;;;;;;1.70;1.60;;;;;;;;;;10379205;28;22097;-75
2023/12/23 23:10:41;;;;;;;1.90;1.80;;;;;;;;;;10375858;28;20223;-74
2023/12/23 23:15:42;;;;;;;1.52;1.50;;;;;;;;;;10376318;28;21069;-75
2023/12/23 23:20:43;;;;;;;1.50;1.40;;;;;;;;;;10371041;28;20261;-78
2023/12/23 23:25:44;;;;;;;2.03;1.92;;;;;;;;;;10384201;28;20207;-74
2023/12/23 23:30:45;;;;;;;2.25;2.13;;;;;;;;;;10387460;28;20225;-77
2023/12/23 23:35:46;;;;;;;2.35;2.00;;;;;;;;;;10374797;28;20207;-75
2023/12/23 23:40:50;;;;;;;2.75;2.30;;;;;;;;;;10370298;28;20389;-75
2023/12/23 23:45:52;;;;;;;4.40;3.83;;;;;;;;;;10354851;28;20239;-76
2023/12/23 23:50:53;;;;;;;4.22;3.83;;;;;;;;;;10384916;28;20246;-74
2023/12/23 23:55:54;;;;;;;2.75;2.38;;;;;;;;;;10368785;28;20229;-75
